x

Nantucket 54nm Southeast Of Nantucket (44008) Wave Buoy

4:50am - Fri 30th Sep 2016 All times are EDT. -4 hours from GMT.

  • Sig Wave height 10.2ft
  • Swell Direction
  • Peak Period 7s
  • Average Period 6s
  • Wind
    31mph, 36mph gusts
  • Sea Temp 64°f
  • Air Temp 63°f
  • Sea Pressure 1025.6mb
  • Nantucket 54nm Southeast Of Nantucket
  • Nantucket 54nm Southeast Of Nantucket

More Historic Weather Station data

Upgrade to MSW Pro to gain access to the past 30 days of data for over 8000 Wavebouys and Weather Stations around the globe.

Join Pro

Comparision Forecast

View Surf forecast
   
Fri 09/30 4:50am 10ft 7s 6s 31 36 mph 1025.6mb 64f 63f
3:50am 10ft 8s 6s 29 36 mph 1025.6mb 65f 63f
2:50am 11.5ft 7s 6s 29 34 mph 1026.3mb 65f 63f
1:50am 11ft 8s 6s 29 34 mph 1026.7mb 65f 63f
12:50am 10ft 8s 6s 27 34 mph 1026.8mb 66f 63f
Thu 09/29 11:50pm 9.5ft 8s 6s 29 36 mph 1027.3mb 66f 63f
10:50pm 9ft 8s 6s 27 34 mph 1027.8mb 65f 63f
9:50pm 9ft 9s 6s 27 31 mph 1028.2mb 65f 63f
8:50pm 9ft 9s 6s 29 36 mph 1028mb 66f 62f
7:50pm 9.5ft 9s 6s 27 31 mph 1027.8mb 66f 62f
6:50pm 10ft 8s 6s 27 36 mph 1027.3mb 66f 62f
5:50pm 9ft 8s 6s 27 31 mph 1027.1mb 66f 62f
4:50pm 9.5ft 8s 6s 27 34 mph 1026.9mb 66f 62f
3:50pm 10ft 9s 6s 27 31 mph 1026.7mb 67f 63f
2:50pm 11.5ft 8s 7s 25 29 mph 1026.9mb 69f 63f
1:50pm 12ft 8s 7s 25 31 mph 1026.8mb 69f 63f
12:50pm 10.5ft 9s 7s 25 31 mph 1026.9mb 69f 63f
11:50am 11ft 8s 7s 25 29 mph 1026.8mb 69f 63f
10:50am 11ft 8s 7s 25 29 mph 1026.6mb 70f 63f
9:50am 10.5ft 9s 7s 27 29 mph 1026mb 70f 63f
8:50am 10ft 8s 7s 27 34 mph 1025.7mb 70f 62f
7:50am 11ft 9s 7s 27 34 mph 1024.3mb 71f 63f
6:50am 10ft 9s 6s 29 34 mph 1023.6mb 71f 63f
5:50am 10.5ft 8s 6s 29 34 mph 1022.9mb 70f 63f
4:50am 10ft 8s 6s 29 36 mph 1022.1mb 69f 63f
3:50am 10.5ft 8s 6s 29 34 mph 1021.9mb 69f 63f
2:50am 9ft 8s 6s 27 31 mph 1021.4mb 69f 64f
1:50am 8ft 8s 6s 27 29 mph 1021.5mb 70f 65f
12:50am 9ft 7s 6s 25 31 mph 1021mb 69f 64f
Wed 09/28 11:50pm 7ft 8s 5s 25 29 mph 1021.2mb 68f 64f
10:50pm 7.5ft 8s 6s 25 29 mph 1020.6mb 68f 65f
9:50pm 6.5ft 8s 6s 22 29 mph 1020.3mb 68f 65f
8:50pm 6.5ft 7s 6s 25 27 mph 1019.9mb 69f 66f
7:50pm 7ft 7s 6s 22 27 mph 1019.3mb 70f 66f
6:50pm 6.5ft 6s 5s 25 27 mph 1018.5mb 71f 65f
5:50pm 6ft 6s 5s 25 27 mph 1018.3mb 71f 65f
4:50pm 5.5ft 6s 5s 25 27 mph 1018.4mb 71f 65f
3:50pm 5ft 7s 5s 25 29 mph 1017.7mb 71f 66f
2:50pm 4.5ft 7s 5s 22 25 mph 1017.6mb 71f 66f
1:50pm 4ft 7s 5s 22 25 mph 1017.7mb 71f 67f
12:50pm 4ft 7s 6s 16 20 mph 1018.3mb 71f 68f
11:50am 4ft 7s 6s 9 11 mph 1018.1mb 71f 70f
10:50am 4ft 7s 5s 9 11 mph 1018.4mb 71f 69f
9:50am 4.5ft 7s 6s 11 13 mph 1018.4mb 71f 69f
8:50am 4.5ft 7s 6s 9 11 mph 1018mb 71f 69f
7:50am 4.5ft 7s 5s 16 18 mph 1017.7mb 71f 68f
6:50am 5ft 7s 6s 11 13 mph 1017.2mb 70f 68f
5:50am 5ft 6s 5s 11
mph
1016.4mb 70f 67f
4:50am 5ft 6s 6s 7 9 mph 1016.4mb 70f 68f
3:50am 5ft 7s 6s 9 11 mph 1016.2mb 70f 68f
2:50am 4.5ft 7s 6s 4 7 mph 1016.2mb 70f 68f
1:50am 4.5ft 8s 6s 7 9 mph 1015.9mb 70f 71f
12:50am 5ft 8s 6s 7
mph
1015.9mb 70f 71f
Tue 09/27 11:50pm 5ft 8s 6s 11 13 mph 1015.8mb 71f 71f
10:50pm 5.5ft 8s 6s 18 22 mph 1015.5mb 71f 70f
9:50pm 5.5ft 8s 6s 13 18 mph 1015.4mb 71f 70f
8:50pm 6ft 8s 5s 13 16 mph 1015.7mb 71f 69f
7:50pm 6.5ft 8s 5s 20 25 mph 1015.1mb 71f 70f
6:50pm 7.5ft 8s 6s 18 22 mph 1014.4mb 71f 71f
5:50pm 7.5ft 7s 6s 18 22 mph 1014mb 71f 70f
4:50pm 8.5ft 8s 6s 25 29 mph 1013.5mb 71f 71f
3:50pm 9ft 8s 6s 22 25 mph 1013.5mb 71f 71f
2:50pm 10ft 8s 6s 22 27 mph 1013.5mb 71f 71f
1:50pm 9.5ft 8s 6s 29 36 mph 1013.2mb 71f 71f
12:50pm 9ft 8s 6s 27 31 mph 1013.6mb 72f 70f
11:50am 8.5ft 7s 6s 27 34 mph 1014.4mb 72f 72f
10:50am 7ft 7s 5s 29 36 mph 1014.9mb 71f 69f
9:50am 7ft 7s 5s 27 34 mph 1014.9mb 72f 72f
8:50am 6ft 6s 5s 25 31 mph 1014.7mb 71f 71f
7:50am 5.5ft 5s 5s 27 31 mph 1015.1mb 71f 71f
6:50am 4.5ft 5s 4s 20 27 mph 1015.3mb 71f 70f
5:50am 4.5ft 5s 4s 25 29 mph 1015.5mb 71f 70f
4:50am 4ft 5s 4s 22 27 mph 1015.8mb 72f 69f
3:50am 3.5ft 4s 4s 22 27 mph 1016.3mb 72f 69f
2:50am 3ft 4s 4s 20 25 mph 1017mb 71f 69f
1:50am 2.5ft 12s 4s 18 22 mph 1017.9mb 72f 68f
12:50am 2.5ft 12s 5s 16 18 mph 1018.8mb 72f 67f
Mon 09/26 11:50pm 2ft 13s 5s 16 18 mph 1019.4mb 72f 65f
10:50pm 2ft 12s 6s 9 11 mph 1020mb 72f 64f
9:50pm 2.5ft 6s 6s 9 13 mph 1020.5mb 72f 64f
8:50pm 2ft 6s 6s 9 11 mph 1020.7mb 72f 63f
7:50pm 2.5ft 6s 6s 9 13 mph 1020.9mb 72f 62f
6:50pm 2.5ft 6s 5s 7 9 mph 1021mb 71f 61f
5:50pm 2.5ft 6s 5s 2 4 mph 1021.2mb 71f 63f
4:50pm 3ft 6s 5s 4 7 mph 1021.2mb 71f 62f
3:50pm 3ft 6s 5s 7 9 mph 1021.6mb 72f 61f
2:50pm 3.5ft 6s 5s 7 9 mph 1021.7mb 73f 60f
1:50pm 3.5ft 6s 5s 9 11 mph 1021.6mb 73f 60f
12:50pm 3.5ft 6s 5s 9 11 mph 1022.2mb 73f 60f
11:50am 3.5ft 6s 5s 7 9 mph 1022.3mb 73f 60f
10:50am 3.5ft 7s 5s 7 13 mph 1022.5mb 72f 60f
9:50am 3ft 7s 5s 9 13 mph 1022.7mb 72f 60f